Time;durP1;ratioP1;P1;durP2;ratioP2;P2;SDS_P1;SDS_P2;PMS_P1;PMS_P2;Temp;Humidity;BMP_temperature;BMP_pressure;BME280_temperature;BME280_humidity;BME280_pressure;Samples;Min_cycle;Max_cycle;Signal;HPM_P1;HPM_P2
2023/11/30 00:01:51;;;;;;;11.93;8.50;;;;;;;;;;6141255;23;20814;-87
2023/11/30 00:04:37;;;;;;;9.90;7.53;;;;;;;;;;6143156;23;20423;-88
2023/11/30 00:07:15;;;;;;;10.40;8.07;;;;;;;;;;6146954;23;20406;-86
2023/11/30 00:09:51;;;;;;;9.73;7.90;;;;;;;;;;6144713;23;20510;-87
2023/11/30 00:12:35;;;;;;;9.13;7.53;;;;;;;;;;6141072;23;20407;-87
2023/11/30 00:15:16;;;;;;;11.50;8.20;;;;;;;;;;6146947;23;20475;-88
2023/11/30 00:17:59;;;;;;;9.17;7.47;;;;;;;;;;6152271;23;20419;-88
2023/11/30 00:21:02;;;;;;;11.43;8.17;;;;;;;;;;6148076;23;20504;-88
2023/11/30 00:24:02;;;;;;;10.00;7.60;;;;;;;;;;6140386;23;20417;-87
2023/11/30 00:27:02;;;;;;;9.10;8.10;;;;;;;;;;6124369;23;20970;-87
2023/11/30 00:29:55;;;;;;;9.40;7.90;;;;;;;;;;6140008;23;20913;-86
2023/11/30 00:32:30;;;;;;;11.47;8.27;;;;;;;;;;6142084;23;20480;-88
2023/11/30 00:35:17;;;;;;;7.70;6.87;;;;;;;;;;6142341;23;20495;-86
2023/11/30 00:37:58;;;;;;;10.70;8.07;;;;;;;;;;6142408;23;20387;-87
2023/11/30 00:40:52;;;;;;;13.53;9.70;;;;;;;;;;6140582;23;20486;-87
2023/11/30 00:43:28;;;;;;;11.33;8.77;;;;;;;;;;6136914;23;20427;-86
2023/11/30 00:46:16;;;;;;;10.20;8.60;;;;;;;;;;6145683;23;20408;-87
2023/11/30 00:49:28;;;;;;;9.83;7.53;;;;;;;;;;6145768;23;20419;-88
2023/11/30 00:52:13;;;;;;;10.63;8.00;;;;;;;;;;6138798;23;20402;-88
2023/11/30 00:55:11;;;;;;;9.20;8.17;;;;;;;;;;6136222;23;20463;-86
2023/11/30 01:01:04;;;;;;;8.47;7.57;;;;;;;;;;6116283;23;20424;-87
2023/11/30 01:04:19;;;;;;;9.23;7.70;;;;;;;;;;6109380;23;20409;-87
2023/11/30 01:07:03;;;;;;;8.70;7.60;;;;;;;;;;6109361;23;20404;-86
2023/11/30 01:09:53;;;;;;;8.13;7.20;;;;;;;;;;6078677;23;20479;-86
2023/11/30 01:12:42;;;;;;;12.30;8.40;;;;;;;;;;6175410;23;20410;-88
2023/11/30 01:15:21;;;;;;;9.80;7.97;;;;;;;;;;6159011;23;20443;-88
2023/11/30 01:18:05;;;;;;;9.00;7.07;;;;;;;;;;6157199;23;20422;-85
2023/11/30 01:20:37;;;;;;;9.80;8.13;;;;;;;;;;6152678;23;20430;-86
2023/11/30 01:23:15;;;;;;;10.83;8.10;;;;;;;;;;6149061;23;20421;-88
2023/11/30 01:26:05;;;;;;;8.67;7.13;;;;;;;;;;6171485;23;20411;-86
2023/11/30 01:28:44;;;;;;;11.60;9.10;;;;;;;;;;6151969;23;20466;-87
2023/11/30 01:31:17;;;;;;;8.77;7.70;;;;;;;;;;6147730;23;20892;-88
2023/11/30 01:33:51;;;;;;;9.13;7.97;;;;;;;;;;6173426;23;20426;-86
2023/11/30 01:36:26;;;;;;;8.97;8.07;;;;;;;;;;6148969;23;20500;-87
2023/11/30 01:39:33;;;;;;;11.87;8.17;;;;;;;;;;6150438;23;20461;-86
2023/11/30 01:42:17;;;;;;;12.30;9.23;;;;;;;;;;6147816;23;20489;-87
2023/11/30 01:45:02;;;;;;;11.63;8.07;;;;;;;;;;6149612;23;20896;-88
2023/11/30 01:47:42;;;;;;;9.30;7.87;;;;;;;;;;6147447;23;20402;-87
2023/11/30 01:50:15;;;;;;;10.40;8.43;;;;;;;;;;6142663;23;20434;-87
2023/11/30 01:52:43;;;;;;;10.00;8.50;;;;;;;;;;6170294;23;20426;-86
2023/11/30 01:55:27;;;;;;;9.97;8.23;;;;;;;;;;6144514;23;20470;-86
2023/11/30 01:58:15;;;;;;;12.00;8.60;;;;;;;;;;6144263;23;20391;-88
2023/11/30 02:01:01;;;;;;;12.80;8.27;;;;;;;;;;6142913;23;20418;-87
2023/11/30 02:03:37;;;;;;;10.63;7.50;;;;;;;;;;6143365;23;20418;-86
2023/11/30 02:12:33;;;;;;;11.47;7.17;;;;;;;;;;6169666;23;20422;-85
2023/11/30 02:15:03;;;;;;;14.67;8.70;;;;;;;;;;6142749;23;20423;-87
2023/11/30 02:17:34;;;;;;;12.43;7.57;;;;;;;;;;6142455;23;20439;-86
2023/11/30 02:20:16;;;;;;;9.77;7.83;;;;;;;;;;6144052;23;20434;-86
2023/11/30 02:22:49;;;;;;;11.13;8.20;;;;;;;;;;6143470;23;20411;-88
2023/11/30 02:25:20;;;;;;;11.23;8.27;;;;;;;;;;6143140;23;20466;-87
2023/11/30 02:27:52;;;;;;;13.47;8.73;;;;;;;;;;6143750;23;20438;-88
2023/11/30 02:30:27;;;;;;;9.40;7.10;;;;;;;;;;6008581;23;20411;-87
2023/11/30 02:33:12;;;;;;;15.33;9.37;;;;;;;;;;6034992;23;20422;-86
2023/11/30 02:36:00;;;;;;;11.70;8.03;;;;;;;;;;6033073;23;20443;-87
2023/11/30 02:38:45;;;;;;;12.17;9.03;;;;;;;;;;6026468;23;20439;-87
2023/11/30 02:41:19;;;;;;;10.30;8.60;;;;;;;;;;6025633;23;20423;-87
2023/11/30 02:44:02;;;;;;;10.83;7.67;;;;;;;;;;6027410;23;20489;-87
2023/11/30 02:46:45;;;;;;;12.23;9.10;;;;;;;;;;6025239;23;20399;-85
2023/11/30 02:49:23;;;;;;;10.40;7.07;;;;;;;;;;6145741;23;20453;-87
2023/11/30 02:51:56;;;;;;;10.73;8.23;;;;;;;;;;6143007;23;20420;-87
2023/11/30 02:54:27;;;;;;;9.00;7.53;;;;;;;;;;6166763;23;20441;-87
2023/11/30 02:57:03;;;;;;;9.67;7.43;;;;;;;;;;6165801;23;20443;-87
2023/11/30 02:59:50;;;;;;;10.20;7.90;;;;;;;;;;6166053;23;20465;-87
2023/11/30 03:02:23;;;;;;;11.57;7.80;;;;;;;;;;6141994;23;20395;-88
2023/11/30 03:08:09;;;;;;;10.00;7.90;;;;;;;;;;6166101;23;20740;-88
2023/11/30 03:10:55;;;;;;;12.27;8.20;;;;;;;;;;6174209;23;20430;-86
2023/11/30 03:13:45;;;;;;;10.10;7.70;;;;;;;;;;6144449;23;20410;-86
2023/11/30 03:16:23;;;;;;;9.87;8.40;;;;;;;;;;6140326;23;20530;-87
2023/11/30 03:19:01;;;;;;;10.93;8.73;;;;;;;;;;6142299;23;20427;-87
2023/11/30 03:21:40;;;;;;;13.27;8.70;;;;;;;;;;6154351;23;20457;-87
2023/11/30 03:24:20;;;;;;;14.03;9.77;;;;;;;;;;6141670;23;20939;-86
2023/11/30 03:27:00;;;;;;;10.30;8.37;;;;;;;;;;6166686;23;20423;-86
2023/11/30 03:29:40;;;;;;;11.47;9.07;;;;;;;;;;6143787;23;20427;-88
2023/11/30 03:32:21;;;;;;;13.93;10.13;;;;;;;;;;6143698;23;20436;-87
2023/11/30 03:35:08;;;;;;;12.60;8.90;;;;;;;;;;6180127;23;20430;-86
2023/11/30 03:37:45;;;;;;;12.27;9.93;;;;;;;;;;6155450;23;20469;-87
2023/11/30 03:40:28;;;;;;;12.17;8.80;;;;;;;;;;6164428;23;20447;-89
2023/11/30 03:43:02;;;;;;;12.30;9.40;;;;;;;;;;6150541;23;20398;-89
2023/11/30 03:45:35;;;;;;;12.60;8.60;;;;;;;;;;6139934;23;20407;-87
2023/11/30 03:48:06;;;;;;;10.80;8.10;;;;;;;;;;6135483;23;20466;-89
2023/11/30 03:50:37;;;;;;;13.50;9.40;;;;;;;;;;6136787;23;20972;-89
2023/11/30 03:53:07;;;;;;;10.40;8.43;;;;;;;;;;6130189;23;20412;-88
2023/11/30 03:55:48;;;;;;;11.90;9.90;;;;;;;;;;6131725;23;20466;-88
2023/11/30 03:58:20;;;;;;;11.30;8.80;;;;;;;;;;6130957;23;20403;-85
2023/11/30 04:00:50;;;;;;;12.77;9.27;;;;;;;;;;6149161;23;20412;-91
2023/11/30 04:03:20;;;;;;;14.10;9.67;;;;;;;;;;6151192;23;20399;-91
2023/11/30 04:05:57;;;;;;;11.30;8.77;;;;;;;;;;6152052;23;20423;-88
2023/11/30 04:08:31;;;;;;;9.93;8.00;;;;;;;;;;6152417;23;20399;-87
2023/11/30 04:11:09;;;;;;;14.33;9.37;;;;;;;;;;6151882;23;20418;-86
2023/11/30 04:13:38;;;;;;;12.37;9.60;;;;;;;;;;6130697;23;20444;-86
2023/11/30 04:16:20;;;;;;;13.93;9.80;;;;;;;;;;6130045;23;20447;-86
2023/11/30 04:18:55;;;;;;;12.30;10.07;;;;;;;;;;6129065;23;20454;-84
2023/11/30 04:21:41;;;;;;;;;;;;;;;;;;;;;
2023/11/30 04:24:15;;;;;;;14.23;9.73;;;;;;;;;;6152280;23;20436;-85
2023/11/30 04:26:45;;;;;;;13.50;9.40;;;;;;;;;;6147492;23;20486;-85
2023/11/30 04:29:23;;;;;;;12.23;9.10;;;;;;;;;;6141392;23;20765;-88
2023/11/30 04:32:00;;;;;;;16.27;9.83;;;;;;;;;;6139851;23;20430;-89
2023/11/30 04:34:36;;;;;;;12.47;9.43;;;;;;;;;;6138273;23;20495;-88
2023/11/30 04:37:09;;;;;;;14.77;9.63;;;;;;;;;;6139434;23;20447;-88
2023/11/30 04:39:55;;;;;;;11.77;8.97;;;;;;;;;;6137588;23;20499;-87
2023/11/30 04:42:26;;;;;;;10.87;8.87;;;;;;;;;;6139378;23;20503;-87
2023/11/30 04:45:12;;;;;;;;;;;;;;;;;;;;;
2023/11/30 04:47:46;;;;;;;14.60;9.60;;;;;;;;;;6147753;23;20515;-87
2023/11/30 04:50:33;;;;;;;13.53;9.43;;;;;;;;;;6140364;23;20431;-88
2023/11/30 04:53:25;;;;;;;12.00;8.47;;;;;;;;;;6137405;23;20419;-88
2023/11/30 04:55:55;;;;;;;15.27;8.87;;;;;;;;;;6138284;23;20426;-89
2023/11/30 04:58:27;;;;;;;14.73;10.30;;;;;;;;;;6132978;23;20412;-88
2023/11/30 05:00:56;;;;;;;16.63;10.77;;;;;;;;;;6134451;23;20453;-87
2023/11/30 05:03:27;;;;;;;15.17;10.20;;;;;;;;;;6135876;23;20400;-89
2023/11/30 05:06:05;;;;;;;14.67;10.07;;;;;;;;;;6137160;23;20415;-88
2023/11/30 05:08:38;;;;;;;16.10;9.27;;;;;;;;;;6136336;23;20479;-87
2023/11/30 05:11:06;;;;;;;19.30;11.00;;;;;;;;;;6142638;23;20675;-89
2023/11/30 05:13:55;;;;;;;12.97;9.73;;;;;;;;;;6150142;23;20407;-88
2023/11/30 05:16:31;;;;;;;14.70;9.67;;;;;;;;;;6149230;23;20450;-87
2023/11/30 05:19:08;;;;;;;15.93;10.10;;;;;;;;;;6149282;23;20431;-87
2023/11/30 05:21:39;;;;;;;13.53;8.80;;;;;;;;;;6149406;23;20474;-87
2023/11/30 05:24:12;;;;;;;14.97;9.57;;;;;;;;;;6146386;23;20391;-85
2023/11/30 05:26:43;;;;;;;14.27;9.07;;;;;;;;;;6144949;23;20411;-87
2023/11/30 05:29:20;;;;;;;18.00;10.40;;;;;;;;;;6143150;23;20442;-89
2023/11/30 05:32:01;;;;;;;11.90;8.77;;;;;;;;;;6140804;23;20395;-89
2023/11/30 05:34:41;;;;;;;14.97;9.80;;;;;;;;;;6140389;23;20411;-86
2023/11/30 05:37:16;;;;;;;20.30;9.73;;;;;;;;;;6136726;23;20434;-90
2023/11/30 05:39:54;;;;;;;13.33;9.33;;;;;;;;;;6137377;23;20450;-85
2023/11/30 05:42:22;;;;;;;12.23;9.63;;;;;;;;;;6138682;23;20434;-88
2023/11/30 05:44:54;;;;;;;15.23;9.80;;;;;;;;;;6136912;23;20412;-88
2023/11/30 05:47:23;;;;;;;13.93;8.87;;;;;;;;;;6137832;23;20422;-88
2023/11/30 05:50:01;;;;;;;13.70;9.90;;;;;;;;;;6146590;23;20463;-89
2023/11/30 05:52:48;;;;;;;14.20;9.50;;;;;;;;;;6137318;23;20426;-88
2023/11/30 05:55:27;;;;;;;14.63;9.30;;;;;;;;;;6133960;23;20498;-88
2023/11/30 05:58:05;;;;;;;13.70;9.47;;;;;;;;;;6138764;23;20937;-88
2023/11/30 06:00:38;;;;;;;13.50;9.50;;;;;;;;;;6134833;23;20428;-89
2023/11/30 06:06:10;;;;;;;14.63;9.77;;;;;;;;;;6124928;23;20415;-90
2023/11/30 06:08:55;;;;;;;14.43;9.10;;;;;;;;;;6135727;23;20436;-87
2023/11/30 06:11:44;;;;;;;16.90;10.20;;;;;;;;;;6140800;23;20415;-88
2023/11/30 06:14:41;;;;;;;15.20;10.33;;;;;;;;;;6132135;23;20404;-89
2023/11/30 06:17:12;;;;;;;16.30;10.07;;;;;;;;;;6134920;23;20447;-89
2023/11/30 06:20:08;;;;;;;13.20;8.97;;;;;;;;;;6137368;23;20494;-87
2023/11/30 06:22:35;;;;;;;16.97;10.40;;;;;;;;;;6137699;23;20462;-89
2023/11/30 06:25:16;;;;;;;15.93;9.33;;;;;;;;;;6140952;23;20427;-87
2023/11/30 06:27:48;;;;;;;19.53;11.13;;;;;;;;;;6138936;23;20800;-88
2023/11/30 06:30:22;;;;;;;15.37;9.77;;;;;;;;;;6135025;23;20467;-89
2023/11/30 06:32:57;;;;;;;15.93;9.90;;;;;;;;;;6137419;23;20486;-87
2023/11/30 06:35:25;;;;;;;15.20;10.67;;;;;;;;;;6135681;23;20415;-88
2023/11/30 06:38:11;;;;;;;14.27;8.63;;;;;;;;;;6135547;23;20451;-88
2023/11/30 06:40:41;;;;;;;15.80;9.80;;;;;;;;;;6134044;23;20443;-86
2023/11/30 06:43:13;;;;;;;14.87;9.60;;;;;;;;;;6137033;23;20424;-87
2023/11/30 06:45:49;;;;;;;15.90;10.50;;;;;;;;;;6138249;23;20411;-87
2023/11/30 06:48:26;;;;;;;18.00;10.60;;;;;;;;;;6134894;23;20443;-88
2023/11/30 06:51:01;;;;;;;13.50;8.87;;;;;;;;;;6134780;23;20431;-87
2023/11/30 06:53:42;;;;;;;14.80;9.97;;;;;;;;;;6132068;23;20439;-87
2023/11/30 06:56:12;;;;;;;19.30;12.97;;;;;;;;;;6142879;23;20416;-86
2023/11/30 06:58:49;;;;;;;14.97;9.70;;;;;;;;;;6151378;23;20419;-87
2023/11/30 07:01:31;;;;;;;18.80;11.13;;;;;;;;;;6148415;23;20483;-88
2023/11/30 07:04:00;;;;;;;21.53;10.80;;;;;;;;;;6137288;23;20412;-87
2023/11/30 07:06:36;;;;;;;19.83;10.77;;;;;;;;;;6137378;23;20411;-89
2023/11/30 07:09:07;;;;;;;16.50;11.17;;;;;;;;;;6136672;23;20440;-87
2023/11/30 07:11:37;;;;;;;17.30;10.87;;;;;;;;;;6138541;23;20408;-88
2023/11/30 07:14:16;;;;;;;14.33;9.70;;;;;;;;;;6149109;23;20403;-87
2023/11/30 07:16:55;;;;;;;19.03;10.57;;;;;;;;;;6150235;23;20427;-88
2023/11/30 07:19:34;;;;;;;17.00;10.73;;;;;;;;;;6147267;23;20471;-89
2023/11/30 07:22:08;;;;;;;14.20;9.30;;;;;;;;;;6143074;23;20482;-90
2023/11/30 07:24:38;;;;;;;18.00;10.00;;;;;;;;;;6141728;23;20416;-88
2023/11/30 07:27:16;;;;;;;15.97;9.57;;;;;;;;;;6139164;23;20411;-88
2023/11/30 07:30:08;;;;;;;15.90;9.83;;;;;;;;;;6144500;23;20431;-86
2023/11/30 07:33:00;;;;;;;14.40;8.73;;;;;;;;;;6147483;23;20479;-89
2023/11/30 07:35:35;;;;;;;16.07;9.07;;;;;;;;;;6146528;23;20392;-89
2023/11/30 07:38:13;;;;;;;17.00;10.97;;;;;;;;;;6149659;23;20435;-89
2023/11/30 07:40:51;;;;;;;22.20;10.97;;;;;;;;;;6147922;23;20454;-88
2023/11/30 07:43:25;;;;;;;16.37;9.87;;;;;;;;;;6102904;23;20460;-89
2023/11/30 07:45:56;;;;;;;15.90;9.30;;;;;;;;;;6113135;23;20423;-87
2023/11/30 07:48:27;;;;;;;15.07;9.10;;;;;;;;;;6137930;23;20416;-89
2023/11/30 07:50:57;;;;;;;15.40;9.90;;;;;;;;;;6141296;23;20504;-87
2023/11/30 07:53:27;;;;;;;17.90;9.20;;;;;;;;;;6137765;23;20419;-87
2023/11/30 07:56:01;;;;;;;16.70;9.50;;;;;;;;;;6135600;23;20407;-88
2023/11/30 07:58:29;;;;;;;14.47;8.80;;;;;;;;;;6136359;23;20447;-87
2023/11/30 08:01:01;;;;;;;16.33;10.63;;;;;;;;;;6141911;23;20404;-86
2023/11/30 08:03:35;;;;;;;16.20;9.70;;;;;;;;;;6134147;23;20447;-88
2023/11/30 08:06:14;;;;;;;16.00;11.27;;;;;;;;;;6137055;23;20415;-87
2023/11/30 08:08:42;;;;;;;14.13;9.77;;;;;;;;;;6139610;23;20959;-88
2023/11/30 08:11:16;;;;;;;15.00;9.60;;;;;;;;;;6142664;23;20416;-87
2023/11/30 08:13:44;;;;;;;14.47;9.47;;;;;;;;;;6141474;23;20467;-85
2023/11/30 08:16:12;;;;;;;11.83;8.23;;;;;;;;;;6138645;23;20422;-88
2023/11/30 08:18:40;;;;;;;15.50;9.60;;;;;;;;;;6134693;23;20862;-89
2023/11/30 08:21:13;;;;;;;16.50;9.53;;;;;;;;;;6135564;23;21219;-89
2023/11/30 08:23:45;;;;;;;15.80;9.37;;;;;;;;;;6134156;23;21061;-89
2023/11/30 08:26:15;;;;;;;12.33;7.80;;;;;;;;;;6133715;23;20792;-88
2023/11/30 08:28:50;;;;;;;12.20;8.10;;;;;;;;;;6131345;23;20435;-88
2023/11/30 08:31:19;;;;;;;12.00;8.27;;;;;;;;;;6132651;23;20415;-88
2023/11/30 08:33:47;;;;;;;13.10;8.57;;;;;;;;;;6134437;23;20427;-88
2023/11/30 08:36:19;;;;;;;14.53;9.67;;;;;;;;;;6133427;23;20418;-88
2023/11/30 08:38:50;;;;;;;11.33;7.03;;;;;;;;;;6134467;23;20475;-89
2023/11/30 08:41:17;;;;;;;11.40;8.47;;;;;;;;;;6131920;23;20412;-88
2023/11/30 08:43:52;;;;;;;15.30;9.43;;;;;;;;;;6132198;23;20775;-89
2023/11/30 08:46:25;;;;;;;14.00;9.17;;;;;;;;;;6132780;23;20411;-91
2023/11/30 08:48:53;;;;;;;13.33;9.60;;;;;;;;;;6132551;23;20440;-89
2023/11/30 08:51:26;;;;;;;16.53;7.93;;;;;;;;;;6132732;23;20426;-87
2023/11/30 08:53:57;;;;;;;12.50;8.70;;;;;;;;;;6132889;23;20419;-87
2023/11/30 08:56:28;;;;;;;14.03;9.40;;;;;;;;;;6133816;23;20411;-89
2023/11/30 08:58:59;;;;;;;13.50;8.53;;;;;;;;;;6132603;23;20497;-88
2023/11/30 09:01:33;;;;;;;11.30;8.00;;;;;;;;;;6132226;23;20412;-89
2023/11/30 09:04:04;;;;;;;13.53;8.30;;;;;;;;;;6132932;23;20411;-83
2023/11/30 09:06:35;;;;;;;13.97;8.53;;;;;;;;;;6133976;23;20912;-88
2023/11/30 09:09:05;;;;;;;15.63;9.07;;;;;;;;;;6133604;23;20440;-87
2023/11/30 09:11:44;;;;;;;11.77;7.90;;;;;;;;;;6135736;23;20411;-88
2023/11/30 09:14:14;;;;;;;11.93;8.07;;;;;;;;;;6135139;23;20420;-89
2023/11/30 09:16:44;;;;;;;12.00;7.90;;;;;;;;;;6135179;23;21011;-88
2023/11/30 09:19:20;;;;;;;13.20;8.47;;;;;;;;;;6134275;23;20431;-89
2023/11/30 09:22:00;;;;;;;13.50;8.80;;;;;;;;;;6134273;23;20441;-87
2023/11/30 09:24:46;;;;;;;11.17;7.30;;;;;;;;;;6143547;23;20407;-86
2023/11/30 09:27:17;;;;;;;11.13;7.57;;;;;;;;;;6146518;23;20408;-88
2023/11/30 09:29:49;;;;;;;9.10;6.43;;;;;;;;;;6149301;23;20416;-86
2023/11/30 09:32:38;;;;;;;8.83;6.33;;;;;;;;;;6143261;23;20561;-87
2023/11/30 09:35:11;;;;;;;12.90;8.73;;;;;;;;;;6148281;23;20400;-86
2023/11/30 09:37:51;;;;;;;16.80;8.80;;;;;;;;;;6148996;23;20480;-86
2023/11/30 09:40:19;;;;;;;16.33;9.00;;;;;;;;;;6146870;23;20440;-88
2023/11/30 09:42:56;;;;;;;12.93;7.87;;;;;;;;;;6120861;23;20486;-89
2023/11/30 09:45:40;;;;;;;13.10;8.30;;;;;;;;;;6165361;23;20414;-89
2023/11/30 09:48:18;;;;;;;10.23;7.97;;;;;;;;;;6164719;23;20407;-88
2023/11/30 09:51:06;;;;;;;11.77;8.67;;;;;;;;;;6112673;23;20400;-89
2023/11/30 09:53:40;;;;;;;12.53;9.10;;;;;;;;;;6113431;23;20419;-88
2023/11/30 09:56:18;;;;;;;11.07;8.10;;;;;;;;;;6108152;23;20412;-88
2023/11/30 09:59:07;;;;;;;10.67;8.13;;;;;;;;;;6137732;23;20521;-88
2023/11/30 10:01:46;;;;;;;10.00;7.93;;;;;;;;;;6136753;23;20476;-89
2023/11/30 10:04:29;;;;;;;10.40;7.10;;;;;;;;;;6113449;23;20416;-88
2023/11/30 10:07:02;;;;;;;10.20;7.20;;;;;;;;;;6114900;23;20423;-89
2023/11/30 10:09:33;;;;;;;13.13;8.10;;;;;;;;;;6122499;23;20436;-89
2023/11/30 10:12:19;;;;;;;10.70;7.43;;;;;;;;;;6127239;23;20419;-87
2023/11/30 10:15:23;;;;;;;8.87;6.23;;;;;;;;;;6126726;23;20427;-88
2023/11/30 10:18:09;;;;;;;10.47;6.80;;;;;;;;;;6136364;23;21304;-87
2023/11/30 10:20:57;;;;;;;10.93;6.77;;;;;;;;;;6116635;23;20416;-88
2023/11/30 10:23:34;;;;;;;10.00;7.20;;;;;;;;;;6108934;23;20440;-86
2023/11/30 10:26:24;;;;;;;10.80;7.10;;;;;;;;;;6110942;23;20412;-86
2023/11/30 10:29:08;;;;;;;8.57;6.20;;;;;;;;;;6110443;23;20436;-85
2023/11/30 10:31:59;;;;;;;7.10;5.90;;;;;;;;;;6109338;23;20381;-85
2023/11/30 10:34:48;;;;;;;6.83;5.77;;;;;;;;;;6102311;23;20404;-88
2023/11/30 10:37:42;;;;;;;7.20;5.37;;;;;;;;;;6122530;23;20407;-86
2023/11/30 10:40:37;;;;;;;;;;;;;;;;;;;;;
2023/11/30 10:43:30;;;;;;;7.10;5.10;;;;;;;;;;6123811;23;20396;-84
2023/11/30 10:46:40;;;;;;;7.93;6.17;;;;;;;;;;6056058;23;20459;-87
2023/11/30 10:49:19;;;;;;;8.13;6.10;;;;;;;;;;6147560;23;20436;-87
2023/11/30 10:52:01;;;;;;;8.33;5.87;;;;;;;;;;6149078;23;20410;-87
2023/11/30 10:54:42;;;;;;;7.07;5.47;;;;;;;;;;6143090;23;20428;-87
2023/11/30 10:57:10;;;;;;;12.43;8.90;;;;;;;;;;6134849;23;20415;-87
2023/11/30 11:00:30;;;;;;;9.60;6.07;;;;;;;;;;6132913;23;20997;-87
2023/11/30 11:03:10;;;;;;;6.80;5.53;;;;;;;;;;6117645;23;20443;-88
2023/11/30 11:05:50;;;;;;;7.40;5.80;;;;;;;;;;6130457;23;20442;-86
2023/11/30 11:08:45;;;;;;;6.37;4.87;;;;;;;;;;6132535;23;20878;-87
2023/11/30 11:11:28;;;;;;;6.60;5.13;;;;;;;;;;6132088;23;20400;-86
2023/11/30 11:14:36;;;;;;;7.10;6.00;;;;;;;;;;6134301;23;20829;-87
2023/11/30 11:17:10;;;;;;;7.03;5.07;;;;;;;;;;6134337;23;20494;-85
2023/11/30 11:19:41;;;;;;;19.50;5.43;;;;;;;;;;6138025;23;20467;-87
2023/11/30 11:22:42;;;;;;;8.57;5.37;;;;;;;;;;6133939;23;20436;-87
2023/11/30 11:25:23;;;;;;;9.80;6.17;;;;;;;;;;6144220;23;20399;-88
2023/11/30 11:31:01;;;;;;;7.00;5.20;;;;;;;;;;6124855;23;21009;-87
2023/11/30 11:33:53;;;;;;;9.40;6.20;;;;;;;;;;6142617;23;20423;-88
2023/11/30 11:36:20;;;;;;;7.07;5.43;;;;;;;;;;6138160;23;20414;-88
2023/11/30 11:38:55;;;;;;;6.67;5.40;;;;;;;;;;6136695;23;20502;-88
2023/11/30 11:41:38;;;;;;;7.57;6.27;;;;;;;;;;6122010;23;20730;-89
2023/11/30 11:44:11;;;;;;;7.43;5.00;;;;;;;;;;6134663;23;20482;-86
2023/11/30 11:46:38;;;;;;;4.70;4.17;;;;;;;;;;6137315;23;20420;-89
2023/11/30 11:49:21;;;;;;;8.53;6.43;;;;;;;;;;6148986;23;20602;-88
2023/11/30 11:52:04;;;;;;;8.00;6.23;;;;;;;;;;6148303;23;20388;-88
2023/11/30 11:54:43;;;;;;;10.63;6.40;;;;;;;;;;6149471;23;20404;-88
2023/11/30 11:57:15;;;;;;;7.70;6.17;;;;;;;;;;6143927;23;20395;-86
2023/11/30 11:59:53;;;;;;;9.00;6.50;;;;;;;;;;6139787;23;20462;-88
2023/11/30 12:02:24;;;;;;;9.43;6.90;;;;;;;;;;6138733;23;20474;-89
2023/11/30 12:05:08;;;;;;;10.57;7.27;;;;;;;;;;6139450;23;20432;-88
2023/11/30 12:07:50;;;;;;;6.93;6.00;;;;;;;;;;6137452;23;20392;-89
2023/11/30 12:10:26;;;;;;;8.73;5.73;;;;;;;;;;6135847;23;20436;-88
2023/11/30 12:20:17;;;;;;;;;;;;;;;;;;;;;
2023/11/30 12:22:55;;;;;;;7.03;5.97;;;;;;;;;;6137076;23;20413;-88
2023/11/30 12:25:28;;;;;;;6.93;5.27;;;;;;;;;;6136223;23;20404;-89
2023/11/30 12:28:06;;;;;;;7.77;5.47;;;;;;;;;;6139936;23;20423;-87
2023/11/30 12:30:52;;;;;;;5.97;5.07;;;;;;;;;;6109679;23;20441;-88
2023/11/30 12:33:42;;;;;;;6.17;4.80;;;;;;;;;;6108917;23;20460;-87
2023/11/30 12:36:25;;;;;;;7.00;5.50;;;;;;;;;;6108617;23;20397;-89
2023/11/30 12:39:05;;;;;;;6.57;5.30;;;;;;;;;;6084853;23;20448;-87
2023/11/30 12:41:39;;;;;;;7.27;5.47;;;;;;;;;;6109199;23;20918;-87
2023/11/30 12:44:20;;;;;;;6.63;5.67;;;;;;;;;;6111101;23;20431;-88
2023/11/30 12:47:02;;;;;;;6.90;5.70;;;;;;;;;;6110828;23;20409;-87
2023/11/30 12:49:38;;;;;;;6.30;5.40;;;;;;;;;;6110689;23;20464;-88
2023/11/30 12:52:13;;;;;;;5.33;4.70;;;;;;;;;;6110645;23;20415;-88
2023/11/30 12:54:51;;;;;;;7.40;5.40;;;;;;;;;;6114387;23;20446;-89
2023/11/30 12:57:34;;;;;;;8.17;5.73;;;;;;;;;;6110934;23;20412;-87
2023/11/30 13:00:14;;;;;;;6.70;5.17;;;;;;;;;;6109849;23;20420;-88
2023/11/30 13:02:46;;;;;;;6.63;5.97;;;;;;;;;;6117163;23;20416;-89
2023/11/30 13:05:43;;;;;;;6.90;5.10;;;;;;;;;;6110241;23;20412;-88
2023/11/30 13:08:23;;;;;;;6.43;5.20;;;;;;;;;;6114907;23;20431;-87
2023/11/30 13:11:27;;;;;;;7.17;5.37;;;;;;;;;;6108779;23;20416;-87
2023/11/30 13:14:08;;;;;;;6.97;6.20;;;;;;;;;;6103282;23;20439;-88
2023/11/30 13:16:54;;;;;;;;;;;;;;;;;;;;;
2023/11/30 13:19:31;;;;;;;6.83;5.20;;;;;;;;;;6101926;23;20454;-89
2023/11/30 13:22:05;;;;;;;8.40;6.10;;;;;;;;;;6108438;23;20975;-88
2023/11/30 13:24:37;;;;;;;6.67;5.30;;;;;;;;;;6109544;23;20483;-89
2023/11/30 13:27:13;;;;;;;5.53;5.00;;;;;;;;;;6109021;23;20424;-87
2023/11/30 13:30:04;;;;;;;6.43;4.90;;;;;;;;;;6109857;23;20428;-87
2023/11/30 13:32:44;;;;;;;8.67;6.03;;;;;;;;;;6114212;23;20392;-88
2023/11/30 13:35:27;;;;;;;7.00;6.30;;;;;;;;;;6065315;23;20959;-86
2023/11/30 13:38:02;;;;;;;9.10;6.40;;;;;;;;;;6116160;23;20408;-88
2023/11/30 13:40:55;;;;;;;9.07;6.07;;;;;;;;;;6085855;23;20429;-88
2023/11/30 13:43:30;;;;;;;7.10;6.00;;;;;;;;;;6085303;23;20405;-88
2023/11/30 13:46:23;;;;;;;6.60;5.53;;;;;;;;;;6082967;23;20414;-89
2023/11/30 13:49:30;;;;;;;7.43;6.20;;;;;;;;;;6088797;23;20471;-88
2023/11/30 13:52:18;;;;;;;11.93;9.50;;;;;;;;;;6087351;23;20418;-88
2023/11/30 13:55:00;;;;;;;6.90;5.60;;;;;;;;;;6079588;23;20480;-89
2023/11/30 13:58:01;;;;;;;;;;;;;;;;;;;;;
2023/11/30 14:00:59;;;;;;;10.23;6.83;;;;;;;;;;6086089;23;20429;-88
2023/11/30 14:03:55;;;;;;;7.90;6.30;;;;;;;;;;6085212;23;20410;-86
2023/11/30 14:06:47;;;;;;;8.37;7.37;;;;;;;;;;6076630;23;20417;-85
2023/11/30 14:09:28;;;;;;;8.97;5.90;;;;;;;;;;6077905;23;20441;-86
2023/11/30 14:12:12;;;;;;;8.23;6.07;;;;;;;;;;6073234;23;20389;-87
2023/11/30 14:14:57;;;;;;;7.30;5.83;;;;;;;;;;6074807;23;20449;-88
2023/11/30 14:17:45;;;;;;;10.13;6.90;;;;;;;;;;6075190;23;20426;-86
2023/11/30 14:20:42;;;;;;;8.77;6.23;;;;;;;;;;6071378;23;20430;-86
2023/11/30 14:23:20;;;;;;;7.50;5.93;;;;;;;;;;6061582;23;20516;-86
2023/11/30 14:26:00;;;;;;;7.67;5.70;;;;;;;;;;6079497;23;20445;-90
2023/11/30 14:28:57;;;;;;;8.53;7.20;;;;;;;;;;6056740;23;20449;-88
2023/11/30 14:31:57;;;;;;;7.30;5.93;;;;;;;;;;6073476;23;20422;-87
2023/11/30 14:34:36;;;;;;;7.00;5.87;;;;;;;;;;6073034;23;20690;-85
2023/11/30 14:37:20;;;;;;;7.80;5.67;;;;;;;;;;6071918;23;20457;-86
2023/11/30 14:40:10;;;;;;;6.60;5.90;;;;;;;;;;6073197;23;20437;-89
2023/11/30 14:46:31;;;;;;;8.30;5.13;;;;;;;;;;6077097;23;20417;-85
2023/11/30 14:49:39;;;;;;;6.60;5.43;;;;;;;;;;6074991;23;20422;-86
2023/11/30 14:52:12;;;;;;;6.77;5.43;;;;;;;;;;6082123;23;20436;-86
2023/11/30 14:54:55;;;;;;;8.60;6.07;;;;;;;;;;6080434;23;20382;-86
2023/11/30 14:57:52;;;;;;;26.33;7.40;;;;;;;;;;6028627;23;20410;-88
2023/11/30 15:00:36;;;;;;;7.03;5.20;;;;;;;;;;6029824;23;20489;-86
2023/11/30 15:03:09;;;;;;;8.43;5.90;;;;;;;;;;6028579;23;20383;-87
2023/11/30 15:05:52;;;;;;;8.30;6.67;;;;;;;;;;5944640;24;20440;-86
2023/11/30 15:08:44;;;;;;;8.23;6.47;;;;;;;;;;5988847;23;20454;-87
2023/11/30 15:11:27;;;;;;;7.33;5.70;;;;;;;;;;6027139;23;20418;-86
2023/11/30 15:14:21;;;;;;;8.60;6.40;;;;;;;;;;6035687;23;20419;-86
2023/11/30 15:17:25;;;;;;;10.30;6.00;;;;;;;;;;6018510;23;21023;-88
2023/11/30 15:19:57;;;;;;;11.50;6.30;;;;;;;;;;6021840;23;20485;-86
2023/11/30 15:22:40;;;;;;;8.00;6.10;;;;;;;;;;6020277;23;20402;-88
2023/11/30 15:25:16;;;;;;;7.30;6.40;;;;;;;;;;6046819;23;20803;-88
2023/11/30 15:27:48;;;;;;;9.00;6.20;;;;;;;;;;6021199;23;20418;-88
2023/11/30 15:33:37;;;;;;;11.10;7.23;;;;;;;;;;5973336;23;20407;-87
2023/11/30 15:36:20;;;;;;;11.07;7.13;;;;;;;;;;5992655;23;20435;-87
2023/11/30 15:39:15;;;;;;;11.20;7.47;;;;;;;;;;6070678;23;20546;-86
2023/11/30 15:56:17;;;;;;;8.73;6.23;;;;;;;;;;6050287;23;20413;-88
2023/11/30 15:59:07;;;;;;;9.97;6.77;;;;;;;;;;6034211;23;20453;-86
2023/11/30 16:01:55;;;;;;;7.80;5.83;;;;;;;;;;6036220;23;20442;-87
2023/11/30 16:04:49;;;;;;;9.77;7.90;;;;;;;;;;6052660;23;20446;-87
2023/11/30 16:07:20;;;;;;;9.47;7.33;;;;;;;;;;6026081;23;20418;-85
2023/11/30 16:09:50;;;;;;;9.00;7.00;;;;;;;;;;6044370;23;20452;-87
2023/11/30 16:12:21;;;;;;;10.70;7.33;;;;;;;;;;6022955;23;20418;-87
2023/11/30 16:15:15;;;;;;;10.20;6.80;;;;;;;;;;6045084;23;20500;-88
2023/11/30 16:17:50;;;;;;;11.33;7.17;;;;;;;;;;6022788;23;20533;-86
2023/11/30 16:20:31;;;;;;;9.43;7.43;;;;;;;;;;6027818;23;20477;-85
2023/11/30 16:23:12;;;;;;;7.40;6.33;;;;;;;;;;6027802;23;20445;-86
2023/11/30 16:25:47;;;;;;;10.47;8.33;;;;;;;;;;6027608;23;20417;-87
2023/11/30 16:28:29;;;;;;;10.33;7.47;;;;;;;;;;6063884;23;20410;-88
2023/11/30 16:31:17;;;;;;;11.17;8.37;;;;;;;;;;6060150;23;20426;-87
2023/11/30 16:34:06;;;;;;;10.80;7.40;;;;;;;;;;6064004;23;20406;-89
2023/11/30 16:36:49;;;;;;;;;;;;;;;;;;;;;
2023/11/30 16:39:25;;;;;;;11.83;7.93;;;;;;;;;;6053440;23;20438;-89
2023/11/30 16:42:21;;;;;;;9.83;7.10;;;;;;;;;;6030232;23;20445;-88
2023/11/30 16:44:50;;;;;;;11.63;8.53;;;;;;;;;;6027676;23;20413;-86